Terminal Aerodrome Forecast
Issued by NWS Oklahoma City, OK

Home | Current Version | Previous Version | Text Only | Print | Product List | Glossary On
Versions: 1 2 3 4 5 6 7 8 9 10 11 12 13 14 15 16 17 18 19 20 21 22 23 24 25 26 27
000
FTUS44 KOUN 271915 AAB
TAFOUN
TAF AMD
KOUN 271915Z 2719/2818 03010KT P6SM BKN028 BKN100
     FM272000 03008KT P6SM SCT035 SCT100
     FM280300 14006KT P6SM FEW250
     FM280900 18011KT P6SM BKN150=

USA.gov is the U.S. government's official web portal to all federal, state and local government web resources and services.